createdAt,value
2017-12-31T00:00:43.706Z,2.57
2017-12-31T00:03:10.646Z,1.83
2017-12-31T00:05:37.522Z,2.93
2017-12-31T00:08:04.454Z,2.77
2017-12-31T00:10:31.312Z,2.77
2017-12-31T00:12:58.267Z,2.97
2017-12-31T00:15:25.948Z,3.77
2017-12-31T00:17:52.802Z,2.50
2017-12-31T00:20:19.736Z,2.10
2017-12-31T00:22:46.631Z,1.80
2017-12-31T00:25:13.492Z,3.23
2017-12-31T00:27:40.438Z,3.03
2017-12-31T00:30:07.334Z,1.30
2017-12-31T00:32:34.355Z,1.47
2017-12-31T00:35:02.028Z,1.23
2017-12-31T00:37:28.918Z,4.70
2017-12-31T00:39:55.866Z,1.53
2017-12-31T00:42:22.811Z,1.60
2017-12-31T00:44:49.741Z,1.50
2017-12-31T00:47:16.598Z,7.83
2017-12-31T00:49:43.484Z,3.80
2017-12-31T00:52:10.410Z,1.00
2017-12-31T00:54:37.353Z,1.73
2017-12-31T00:57:04.239Z,0.80
2017-12-31T00:59:31.080Z,1.80
2017-12-31T01:01:58.023Z,1.60
2017-12-31T01:04:25.657Z,2.70
2017-12-31T01:06:52.514Z,1.80
2017-12-31T01:09:20.198Z,2.53
2017-12-31T01:11:47.075Z,1.00
2017-12-31T01:14:13.993Z,1.00
2017-12-31T01:16:40.967Z,1.90
2017-12-31T01:19:07.815Z,2.10
2017-12-31T01:21:34.768Z,0.90
2017-12-31T01:24:01.638Z,3.00
2017-12-31T01:26:28.605Z,2.27
2017-12-31T01:28:55.596Z,0.50
2017-12-31T01:31:22.576Z,1.07
2017-12-31T01:33:57.750Z,0.83
2017-12-31T01:36:39.171Z,2.30
2017-12-31T01:39:21.612Z,0.50
2017-12-31T01:41:55.289Z,0.50
2017-12-31T01:44:22.444Z,0.90
2017-12-31T01:46:49.428Z,1.00
2017-12-31T01:49:17.039Z,1.20
2017-12-31T01:51:54.063Z,1.07
2017-12-31T01:54:22.336Z,1.10
2017-12-31T01:56:49.272Z,1.93
2017-12-31T01:59:16.141Z,1.60
2017-12-31T02:01:43.819Z,1.83
2017-12-31T02:04:11.432Z,3.67
2017-12-31T02:06:50.500Z,2.77
2017-12-31T02:09:29.625Z,2.93
2017-12-31T02:12:11.838Z,4.00
2017-12-31T02:14:55.054Z,3.57
2017-12-31T02:17:44.318Z,6.33
2017-12-31T02:20:14.105Z,5.20
2017-12-31T02:22:41.075Z,7.30
2017-12-31T02:25:09.240Z,9.37
2017-12-31T02:27:37.450Z,5.93
2017-12-31T02:30:20.614Z,7.77
2017-12-31T02:32:49.524Z,14.93
2017-12-31T02:35:19.159Z,9.03
2017-12-31T02:37:46.222Z,7.73
2017-12-31T02:43:07.427Z,8.67
2017-12-31T02:45:39.280Z,6.80
2017-12-31T02:48:06.206Z,10.10
2017-12-31T02:50:33.124Z,15.00
2017-12-31T02:53:00.048Z,14.03
2017-12-31T02:55:26.994Z,10.67
2017-12-31T02:57:54.632Z,6.83
2017-12-31T03:00:21.595Z,15.47
2017-12-31T03:02:48.461Z,12.97
2017-12-31T03:05:18.600Z,11.70
2017-12-31T03:07:48.990Z,10.83
2017-12-31T03:10:20.769Z,9.80
2017-12-31T03:13:05.384Z,13.23
2017-12-31T03:15:43.905Z,13.33
2017-12-31T03:18:11.719Z,9.20
2017-12-31T03:20:39.511Z,8.90
2017-12-31T03:23:07.594Z,8.20
2017-12-31T03:25:50.129Z,8.43
2017-12-31T03:28:26.443Z,9.97
2017-12-31T03:31:08.257Z,5.67
2017-12-31T03:33:48.842Z,6.50
2017-12-31T03:36:32.097Z,6.30
2017-12-31T03:39:00.071Z,5.20
2017-12-31T03:41:39.316Z,7.13
2017-12-31T03:44:18.730Z,4.10
2017-12-31T03:46:58.476Z,4.60
2017-12-31T03:49:41.161Z,3.07
2017-12-31T03:52:26.501Z,2.20
2017-12-31T03:55:08.275Z,2.13
2017-12-31T03:57:48.280Z,2.87
2017-12-31T04:00:29.544Z,5.90
2017-12-31T04:03:11.112Z,6.63
2017-12-31T04:05:51.826Z,2.63
2017-12-31T04:08:34.839Z,5.67
2017-12-31T04:11:18.043Z,2.70
2017-12-31T04:13:45.759Z,6.33
2017-12-31T04:16:12.730Z,3.37
2017-12-31T04:18:39.580Z,2.90
2017-12-31T04:21:06.524Z,2.43
2017-12-31T04:23:46.195Z,4.73
2017-12-31T04:26:25.739Z,5.77
2017-12-31T04:29:04.263Z,5.03
2017-12-31T04:31:46.961Z,4.73
2017-12-31T04:34:27.705Z,5.93
2017-12-31T04:39:51.196Z,3.67
2017-12-31T04:42:29.602Z,3.40
2017-12-31T04:47:59.294Z,4.77
2017-12-31T04:53:25.855Z,6.87
2017-12-31T04:58:52.049Z,7.17
2017-12-31T05:01:32.037Z,9.53
2017-12-31T05:03:59.163Z,8.60
2017-12-31T05:06:41.176Z,7.17
2017-12-31T05:09:24.192Z,8.80
2017-12-31T05:12:06.226Z,7.63
2017-12-31T05:14:45.236Z,8.97
2017-12-31T05:20:08.884Z,9.70
2017-12-31T05:22:51.920Z,10.60
2017-12-31T05:25:33.312Z,8.23
2017-12-31T05:28:14.491Z,9.40
2017-12-31T05:30:56.901Z,8.30
2017-12-31T05:33:39.484Z,10.87
2017-12-31T05:36:21.519Z,11.10
2017-12-31T05:41:45.988Z,6.10
2017-12-31T05:44:28.276Z,13.43
2017-12-31T05:47:11.224Z,4.30
2017-12-31T05:49:51.781Z,11.60
2017-12-31T05:52:31.210Z,9.33
2017-12-31T05:55:08.778Z,8.00
2017-12-31T05:57:49.138Z,6.03
2017-12-31T06:00:29.856Z,10.93
2017-12-31T06:03:11.318Z,4.80
2017-12-31T06:08:33.779Z,6.97
2017-12-31T06:11:16.192Z,12.20
2017-12-31T06:13:56.446Z,8.13
2017-12-31T06:16:36.943Z,6.07
2017-12-31T06:21:57.929Z,7.07
2017-12-31T06:24:38.745Z,8.53
2017-12-31T06:27:20.196Z,8.37
2017-12-31T06:30:01.934Z,5.17
2017-12-31T06:32:44.325Z,5.50
2017-12-31T06:35:24.336Z,7.27
2017-12-31T06:38:04.103Z,6.43
2017-12-31T06:40:44.384Z,3.77
2017-12-31T06:43:25.772Z,8.17
2017-12-31T06:46:06.871Z,4.93
2017-12-31T06:51:34.429Z,2.43
2017-12-31T06:54:16.741Z,6.13
2017-12-31T06:56:58.957Z,7.63
2017-12-31T06:59:42.688Z,4.80
2017-12-31T07:02:22.063Z,3.90
2017-12-31T07:05:05.714Z,4.77
2017-12-31T07:07:44.800Z,2.60
2017-12-31T07:10:23.851Z,11.03
2017-12-31T07:13:01.477Z,5.80
2017-12-31T07:15:40.769Z,6.10
2017-12-31T07:18:18.366Z,5.67
2017-12-31T07:20:59.424Z,4.53
2017-12-31T07:23:40.991Z,7.27
2017-12-31T07:29:07.384Z,6.93
2017-12-31T07:31:49.826Z,4.27
2017-12-31T07:34:32.711Z,5.87
2017-12-31T07:37:12.400Z,2.43
2017-12-31T07:39:55.762Z,4.70
2017-12-31T07:42:38.273Z,4.67
2017-12-31T07:45:23.065Z,6.97
2017-12-31T07:48:03.100Z,3.90
2017-12-31T07:50:45.270Z,7.60
2017-12-31T07:53:25.805Z,4.27
2017-12-31T07:56:06.490Z,3.40
2017-12-31T07:58:48.406Z,6.27
2017-12-31T08:01:32.466Z,4.63
2017-12-31T08:04:15.456Z,5.37
2017-12-31T08:06:55.273Z,7.23
2017-12-31T08:12:21.024Z,5.23
2017-12-31T08:15:04.747Z,5.07
2017-12-31T08:17:45.152Z,6.70
2017-12-31T08:20:23.002Z,4.00
2017-12-31T08:23:02.547Z,6.67
2017-12-31T08:25:45.205Z,9.43
2017-12-31T08:28:26.487Z,7.93
2017-12-31T08:31:07.331Z,11.60
2017-12-31T08:33:47.197Z,3.63
2017-12-31T08:36:27.767Z,9.47
2017-12-31T08:39:09.257Z,4.37
2017-12-31T08:41:48.057Z,8.33
2017-12-31T08:44:29.212Z,2.47
2017-12-31T08:47:12.189Z,7.33
2017-12-31T08:49:55.076Z,8.00
2017-12-31T08:52:33.670Z,5.13
2017-12-31T08:55:13.831Z,10.53
2017-12-31T09:00:42.940Z,2.90
2017-12-31T09:06:10.121Z,6.93
2017-12-31T09:08:51.785Z,2.40
2017-12-31T09:11:32.361Z,7.20
2017-12-31T09:14:11.613Z,6.00
2017-12-31T09:16:53.451Z,4.73
2017-12-31T09:19:36.504Z,7.83
2017-12-31T09:22:16.253Z,7.27
2017-12-31T09:24:58.241Z,4.07
2017-12-31T09:27:39.528Z,5.60
2017-12-31T09:35:48.392Z,6.50
2017-12-31T09:38:24.945Z,4.30
2017-12-31T09:41:05.390Z,4.67
2017-12-31T09:43:45.950Z,4.63
2017-12-31T09:46:27.462Z,7.70
2017-12-31T09:51:49.118Z,5.03
2017-12-31T09:54:31.480Z,7.70
2017-12-31T09:57:11.428Z,9.53
2017-12-31T10:05:16.306Z,3.60
2017-12-31T10:07:56.703Z,5.43
2017-12-31T10:10:36.447Z,6.27
2017-12-31T10:13:15.554Z,5.13
2017-12-31T10:15:55.243Z,9.43
2017-12-31T10:18:36.562Z,6.93
2017-12-31T10:23:57.463Z,8.07
2017-12-31T10:26:35.168Z,4.73
2017-12-31T10:29:16.799Z,3.53
2017-12-31T10:32:03.608Z,5.13
2017-12-31T10:34:47.072Z,6.73
2017-12-31T10:37:29.898Z,5.10
2017-12-31T10:40:07.778Z,4.80
2017-12-31T10:42:47.873Z,2.90
2017-12-31T10:45:29.750Z,4.20
2017-12-31T10:48:12.510Z,7.70
2017-12-31T10:53:34.516Z,2.93
2017-12-31T10:56:14.154Z,3.60
2017-12-31T10:58:53.597Z,4.67
2017-12-31T11:01:36.439Z,4.87
2017-12-31T11:04:21.167Z,5.10
2017-12-31T11:06:59.758Z,5.73
2017-12-31T11:09:40.538Z,4.73
2017-12-31T11:12:23.985Z,5.63
2017-12-31T11:15:04.705Z,2.60
2017-12-31T11:17:46.519Z,8.00
2017-12-31T11:20:27.926Z,4.97
2017-12-31T11:23:09.976Z,3.77
2017-12-31T11:25:52.677Z,2.20
2017-12-31T11:31:20.173Z,6.07
2017-12-31T11:34:02.779Z,4.33
2017-12-31T11:36:44.883Z,5.00
2017-12-31T11:39:24.986Z,3.90
2017-12-31T11:42:07.213Z,7.77
2017-12-31T11:44:46.089Z,8.03
2017-12-31T11:47:26.629Z,5.20
2017-12-31T11:50:06.027Z,4.20
2017-12-31T11:52:43.921Z,5.40
2017-12-31T11:55:24.633Z,3.60
2017-12-31T11:58:05.913Z,3.53
2017-12-31T12:00:46.458Z,7.53
2017-12-31T12:03:26.841Z,4.27
2017-12-31T12:06:09.278Z,4.20
2017-12-31T12:08:36.655Z,4.80
2017-12-31T12:14:00.262Z,7.03
2017-12-31T12:16:42.578Z,3.07
2017-12-31T12:19:11.238Z,4.80
2017-12-31T12:21:38.189Z,2.53
2017-12-31T12:24:05.279Z,7.13
2017-12-31T12:26:32.282Z,2.47
2017-12-31T12:29:10.350Z,3.70
2017-12-31T12:31:42.251Z,6.30
2017-12-31T12:34:20.784Z,3.33
2017-12-31T12:36:58.676Z,4.23
2017-12-31T12:39:36.559Z,4.70
2017-12-31T12:42:17.464Z,7.30
2017-12-31T12:44:58.552Z,5.60
2017-12-31T12:47:38.692Z,6.57
2017-12-31T12:50:20.531Z,3.03
2017-12-31T12:53:01.536Z,4.83
2017-12-31T12:55:46.367Z,4.63
2017-12-31T12:58:24.217Z,2.63
2017-12-31T13:01:03.109Z,2.73
2017-12-31T13:03:44.939Z,7.77
2017-12-31T13:06:22.766Z,2.77
2017-12-31T13:09:01.060Z,4.00
2017-12-31T13:11:41.232Z,4.27
2017-12-31T13:14:10.504Z,4.20
2017-12-31T13:16:47.761Z,4.67
2017-12-31T13:19:22.868Z,2.70
2017-12-31T13:22:01.568Z,2.77
2017-12-31T13:24:43.009Z,6.70
2017-12-31T13:27:21.659Z,3.20
2017-12-31T13:30:01.946Z,2.43
2017-12-31T13:32:30.800Z,4.73
2017-12-31T13:34:59.836Z,4.43
2017-12-31T13:37:40.309Z,1.90
2017-12-31T13:40:20.357Z,4.00
2017-12-31T13:43:01.273Z,2.70
2017-12-31T13:45:42.625Z,3.60
2017-12-31T13:48:23.841Z,6.60
2017-12-31T13:51:04.091Z,5.40
2017-12-31T13:53:43.936Z,2.40
2017-12-31T13:56:21.849Z,3.07
2017-12-31T13:59:04.618Z,3.77
2017-12-31T14:01:43.733Z,2.60
2017-12-31T14:04:11.622Z,2.30
2017-12-31T14:09:38.011Z,3.33
2017-12-31T14:12:06.680Z,3.13
2017-12-31T14:14:33.928Z,4.60
2017-12-31T14:17:07.083Z,3.07
2017-12-31T14:19:34.751Z,4.93
2017-12-31T14:22:03.204Z,2.53
2017-12-31T14:24:45.911Z,4.90
2017-12-31T14:27:15.664Z,4.30
2017-12-31T14:29:43.313Z,2.10
2017-12-31T14:32:22.989Z,3.33
2017-12-31T14:34:51.124Z,5.60
2017-12-31T14:37:22.925Z,5.13
2017-12-31T14:40:03.539Z,4.07
2017-12-31T14:42:34.679Z,3.33
2017-12-31T14:45:05.743Z,6.57
2017-12-31T14:47:37.635Z,2.60
2017-12-31T14:50:04.890Z,5.60
2017-12-31T14:52:34.443Z,4.10
2017-12-31T14:55:10.351Z,2.93
2017-12-31T14:57:39.566Z,3.43
2017-12-31T15:00:06.910Z,3.47
2017-12-31T15:02:47.413Z,3.30
2017-12-31T15:05:29.624Z,6.50
2017-12-31T15:08:10.241Z,2.60
2017-12-31T15:10:52.370Z,2.73
2017-12-31T15:13:25.151Z,4.40
2017-12-31T15:15:59.125Z,2.97
2017-12-31T15:18:39.945Z,1.90
2017-12-31T15:21:07.987Z,3.20
2017-12-31T15:23:35.119Z,4.00
2017-12-31T15:26:02.293Z,3.33
2017-12-31T15:28:43.575Z,3.37
2017-12-31T15:31:25.156Z,3.17
2017-12-31T15:34:05.548Z,3.00
2017-12-31T15:36:47.494Z,6.57
2017-12-31T15:39:28.899Z,4.93
2017-12-31T15:41:57.103Z,2.87
2017-12-31T15:44:24.484Z,2.03
2017-12-31T15:46:51.914Z,3.60
2017-12-31T15:49:19.866Z,2.60
2017-12-31T15:52:01.646Z,2.87
2017-12-31T15:54:43.255Z,2.10
2017-12-31T15:57:25.564Z,2.73
2017-12-31T16:02:40.162Z,2.83
2017-12-31T16:05:15.320Z,2.60
2017-12-31T16:07:42.669Z,4.03
2017-12-31T16:10:09.784Z,2.60
2017-12-31T16:12:52.021Z,2.90
2017-12-31T16:15:24.982Z,3.83
2017-12-31T16:17:59.286Z,4.57
2017-12-31T16:20:38.579Z,2.87
2017-12-31T16:23:06.660Z,3.23
2017-12-31T16:25:40.228Z,2.80
2017-12-31T16:28:07.114Z,3.23
2017-12-31T16:30:34.889Z,2.40
2017-12-31T16:33:02.961Z,2.53
2017-12-31T16:35:30.139Z,3.47
2017-12-31T16:37:57.760Z,3.87
2017-12-31T16:40:32.828Z,2.63
2017-12-31T16:43:00.652Z,3.70
2017-12-31T16:45:42.079Z,3.40
2017-12-31T16:48:24.105Z,3.23
2017-12-31T16:50:51.976Z,4.63
2017-12-31T16:53:21.697Z,3.40
2017-12-31T16:56:01.372Z,5.63
2017-12-31T16:58:29.224Z,4.60
2017-12-31T17:00:59.742Z,6.53
2017-12-31T17:03:28.503Z,3.73
2017-12-31T17:06:01.024Z,3.70
2017-12-31T17:08:28.051Z,4.10
2017-12-31T17:10:55.888Z,4.70
2017-12-31T17:13:32.910Z,4.03
2017-12-31T17:16:12.174Z,4.70
2017-12-31T17:18:51.652Z,12.40
2017-12-31T17:21:20.046Z,4.70
2017-12-31T17:23:48.250Z,7.50
2017-12-31T17:26:27.430Z,4.13
2017-12-31T17:29:06.876Z,2.90
2017-12-31T17:31:47.985Z,2.53
2017-12-31T17:34:15.039Z,3.00
2017-12-31T17:36:50.351Z,2.83
2017-12-31T17:39:20.589Z,2.13
2017-12-31T17:41:58.994Z,3.93
2017-12-31T17:44:33.217Z,2.70
2017-12-31T17:47:00.352Z,2.20
2017-12-31T17:49:39.857Z,4.33
2017-12-31T17:52:18.462Z,8.60
2017-12-31T17:54:54.552Z,3.37
2017-12-31T17:57:21.480Z,2.37
2017-12-31T18:00:02.170Z,3.10
2017-12-31T18:02:34.167Z,2.10
2017-12-31T18:05:05.594Z,2.33
2017-12-31T18:07:32.566Z,1.87
2017-12-31T18:10:05.061Z,3.60
2017-12-31T18:12:32.130Z,2.40
2017-12-31T18:14:59.109Z,3.00
2017-12-31T18:17:28.758Z,4.97
2017-12-31T18:19:56.661Z,2.53
2017-12-31T18:22:23.751Z,3.23
2017-12-31T18:24:50.750Z,2.70
2017-12-31T18:27:24.840Z,4.53
2017-12-31T18:29:57.585Z,2.33
2017-12-31T18:32:29.947Z,2.77
2017-12-31T18:34:56.962Z,3.60
2017-12-31T18:37:25.305Z,4.03
2017-12-31T18:40:01.000Z,4.77
2017-12-31T18:42:27.926Z,2.40
2017-12-31T18:44:59.835Z,3.43
2017-12-31T18:47:33.304Z,3.53
2017-12-31T18:50:02.556Z,2.80
2017-12-31T18:52:36.898Z,2.77
2017-12-31T18:55:04.680Z,5.43
2017-12-31T18:57:31.760Z,6.30
2017-12-31T18:59:58.646Z,3.87
2017-12-31T19:02:26.319Z,2.30
2017-12-31T19:04:54.065Z,3.47
2017-12-31T19:07:21.125Z,2.37
2017-12-31T19:09:48.987Z,2.37
2017-12-31T19:12:16.727Z,5.50
2017-12-31T19:14:43.771Z,3.97
2017-12-31T19:17:10.782Z,2.37
2017-12-31T19:19:37.768Z,2.30
2017-12-31T19:22:04.742Z,3.03
2017-12-31T19:24:32.604Z,2.77
2017-12-31T19:26:59.526Z,3.90
2017-12-31T19:29:26.531Z,2.57
2017-12-31T19:31:53.532Z,2.47
2017-12-31T19:34:21.086Z,3.67
2017-12-31T19:36:48.120Z,2.43
2017-12-31T19:39:15.052Z,2.17
2017-12-31T19:41:42.134Z,3.10
2017-12-31T19:44:09.151Z,3.53
2017-12-31T19:46:36.161Z,2.53
2017-12-31T19:49:03.198Z,3.33
2017-12-31T19:51:30.191Z,3.30
2017-12-31T19:53:57.295Z,4.00
2017-12-31T19:56:25.063Z,2.23
2017-12-31T19:58:52.072Z,3.63
2017-12-31T20:01:19.066Z,2.00
2017-12-31T20:03:47.062Z,2.67
2017-12-31T20:06:14.078Z,3.07
2017-12-31T20:08:41.798Z,2.80
2017-12-31T20:11:08.746Z,2.30
2017-12-31T20:13:35.749Z,3.03
2017-12-31T20:16:03.466Z,3.63
2017-12-31T20:18:30.595Z,1.70
2017-12-31T20:20:57.507Z,2.50
2017-12-31T20:23:24.563Z,3.10
2017-12-31T20:25:52.283Z,2.33
2017-12-31T20:28:19.209Z,1.70
2017-12-31T20:30:46.235Z,1.77
2017-12-31T20:33:13.306Z,3.43
2017-12-31T20:35:40.391Z,2.40
2017-12-31T20:38:07.498Z,2.00
2017-12-31T20:40:35.511Z,3.03
2017-12-31T20:43:03.257Z,2.97
2017-12-31T20:45:31.186Z,3.37
2017-12-31T20:47:58.346Z,2.57
2017-12-31T20:50:25.353Z,2.47
2017-12-31T20:52:53.226Z,3.60
2017-12-31T20:55:23.607Z,4.00
2017-12-31T20:57:50.664Z,3.90
2017-12-31T21:00:17.680Z,2.33
2017-12-31T21:02:44.766Z,2.27
2017-12-31T21:05:14.364Z,2.67
2017-12-31T21:07:41.487Z,3.73
2017-12-31T21:10:08.379Z,2.77
2017-12-31T21:12:35.529Z,3.93
2017-12-31T21:15:02.443Z,3.40
2017-12-31T21:17:29.599Z,2.50
2017-12-31T21:19:56.715Z,1.97
2017-12-31T21:22:23.747Z,3.60
2017-12-31T21:24:50.787Z,3.33
2017-12-31T21:27:17.867Z,2.97
2017-12-31T21:29:45.650Z,2.80
2017-12-31T21:32:12.630Z,2.33
2017-12-31T21:34:39.671Z,2.73
2017-12-31T21:37:06.610Z,3.60
2017-12-31T21:39:33.620Z,2.90
2017-12-31T21:42:01.292Z,2.73
2017-12-31T21:44:33.117Z,3.07
2017-12-31T21:47:00.353Z,3.53
2017-12-31T21:49:27.368Z,3.07
2017-12-31T21:51:54.247Z,6.60
2017-12-31T21:54:21.289Z,3.40
2017-12-31T21:56:48.240Z,3.53
2017-12-31T21:59:15.118Z,4.50
2017-12-31T22:01:42.212Z,2.50
2017-12-31T22:04:09.224Z,2.90
2017-12-31T22:06:37.090Z,3.17
2017-12-31T22:09:04.859Z,4.23
2017-12-31T22:11:32.662Z,3.43
2017-12-31T22:13:59.783Z,3.43
2017-12-31T22:16:26.793Z,4.53
2017-12-31T22:18:53.764Z,3.10
2017-12-31T22:21:20.939Z,4.90
2017-12-31T22:23:48.299Z,3.47
2017-12-31T22:26:17.666Z,3.47
2017-12-31T22:28:44.735Z,3.60
2017-12-31T22:31:12.675Z,7.50
2017-12-31T22:33:39.708Z,4.67
2017-12-31T22:36:06.706Z,5.23
2017-12-31T22:38:33.787Z,3.60
2017-12-31T22:41:00.803Z,10.63
2017-12-31T22:43:27.832Z,3.30
2017-12-31T22:45:54.790Z,3.70
2017-12-31T22:48:35.068Z,3.07
2017-12-31T22:51:16.307Z,3.73
2017-12-31T22:53:58.632Z,4.10
2017-12-31T22:56:40.096Z,4.07
2017-12-31T23:02:07.376Z,5.93
2017-12-31T23:07:34.345Z,5.93
2017-12-31T23:15:51.408Z,8.00
2017-12-31T23:18:32.359Z,12.50
2017-12-31T23:21:09.578Z,9.43
2017-12-31T23:29:21.342Z,19.60
2017-12-31T23:32:03.517Z,17.97
2017-12-31T23:34:48.577Z,13.83
2017-12-31T23:37:29.140Z,19.57
2017-12-31T23:40:15.667Z,18.10
2017-12-31T23:42:58.011Z,17.67
2017-12-31T23:45:42.788Z,14.63
2017-12-31T23:48:24.824Z,14.77
2017-12-31T23:53:49.147Z,14.07
2017-12-31T23:56:33.470Z,13.80
2017-12-31T23:59:17.613Z,12.33
